Ryuoh Maru No.2 — JM5900 — position and weather

sailwx.info

Track history (hours):
 
Tides and Currents Weather Stations Pressure Air Temp Water Temp Dewpoint Dewpoint Depression Visibility Wind Speed Wind Dir Waves Ship Positions

Ryuoh Maru No.2

Last reported at 2015-Aug-01 20:29 UTC. Time now 2015-Aug-27 20:41 UTC.
Position N 36°36' E 140°56'.
Warning: this ship's position is 26 days out of date.

Length 80 m; draft 4.9 m.

Type: Cargo ship. MMSI: 431401218.

Date/timePositionNaut miles runAvg speedWind from/ knotsBaromVisibWave heightAir tempDewpointWater temp
2015-Aug-01 20:29N 36°36' E 140°56'1010.6
2015-Aug-01 19:31N 36°26' E 140°51'1010.5
2015-Aug-01 18:33N 36°16' E 140°48'1010.2
2015-Aug-01 17:33N 36°06' E 140°50'1010.3
2015-Aug-01 16:33N 35°56' E 140°53'1110.6
2015-Aug-01 15:33N 35°46' E 140°56'1010.2
2015-Aug-01 14:33N 35°36' E 140°51'1211.6
2015-Aug-01 13:33N 35°27' E 140°42'1511.7
2015-Aug-01 12:15N 35°15' E 140°31'811.8
2015-Aug-01 11:33N 35°09' E 140°25'1211.4
2015-Aug-01 10:29N 35°01' E 140°13'1110.8
2015-Aug-01 09:28N 34°55' E 140°02'1210.7
2015-Aug-01 08:19N 34°52' E 139°48'911.2
2015-Aug-01 07:33N 35°00' E 139°44'1010.1
2015-Aug-01 06:33N 35°10' E 139°46'9 8.7
2015-Aug-01 05:33N 35°19' E 139°43'7 7.3
2015-Aug-01 04:33N 35°25' E 139°47'5 4.6
2015-Aug-01 03:33N 35°22' E 139°51'0 0.0
2015-Aug-01 02:32N 35°22' E 139°51'0 0.0
2015-Aug-01 01:32N 35°22' E 139°51'0 0.0
2015-Aug-01 00:32N 35°22' E 139°51'0 0.0
2015-Jul-31 23:32N 35°22' E 139°51'0 0.0
2015-Jul-31 22:34N 35°22' E 139°51'1 1.4
2015-Jul-31 21:31N 35°23' E 139°49'0 0.1
2015-Jul-31 20:31N 35°23' E 139°49'0 0.0
2015-Jul-31 19:31N 35°23' E 139°49'0 0.0
2015-Jul-31 18:31N 35°23' E 139°49'3 3.4
2015-Jul-31 17:33N 35°22' E 139°45'1111.2
2015-Jul-31 16:33N 35°10' E 139°47'1110.8
2015-Jul-31 15:33N 35°01' E 139°39'1312.9
2015-Jul-31 14:33N 34°54' E 139°26'227 5.1
2015-Jul-29 18:14N 33°58' E 135°00'711.0
2015-Jul-29 17:33N 34°06' E 134°59'1212.3
2015-Jul-29 16:33N 34°18' E 134°58'1111.4
2015-Jul-29 15:33N 34°29' E 135°02'8 8.2
2015-Jul-29 14:33N 34°36' E 134°57'  
Track history (hours):
 
Tides and Currents Weather Stations Pressure Air Temp Water Temp Dewpoint Dewpoint Depression Visibility Wind Speed Wind Dir Waves Ship Positions

Ryuoh Maru No.2

Last reported at 2015-Aug-01 20:29 UTC. Time now 2015-Aug-27 20:41 UTC.
Position N 36°36' E 140°56'.
Warning: this ship's position is 26 days out of date.

Length 80 m; draft 4.9 m.

Type: Cargo ship. MMSI: 431401218.

Date/timePositionNaut miles runAvg speedWind from/ knotsBaromVisibWave heightAir tempDewpointWater temp
2015-Aug-01 20:29N 36°36' E 140°56'1010.6
2015-Aug-01 19:31N 36°26' E 140°51'1010.5
2015-Aug-01 18:33N 36°16' E 140°48'1010.2
2015-Aug-01 17:33N 36°06' E 140°50'1010.3
2015-Aug-01 16:33N 35°56' E 140°53'1110.6
2015-Aug-01 15:33N 35°46' E 140°56'1010.2
2015-Aug-01 14:33N 35°36' E 140°51'1211.6
2015-Aug-01 13:33N 35°27' E 140°42'1511.7
2015-Aug-01 12:15N 35°15' E 140°31'811.8
2015-Aug-01 11:33N 35°09' E 140°25'1211.4
2015-Aug-01 10:29N 35°01' E 140°13'1110.8
2015-Aug-01 09:28N 34°55' E 140°02'1210.7
2015-Aug-01 08:19N 34°52' E 139°48'911.2
2015-Aug-01 07:33N 35°00' E 139°44'1010.1
2015-Aug-01 06:33N 35°10' E 139°46'9 8.7
2015-Aug-01 05:33N 35°19' E 139°43'7 7.3
2015-Aug-01 04:33N 35°25' E 139°47'5 4.6
2015-Aug-01 03:33N 35°22' E 139°51'0 0.0
2015-Aug-01 02:32N 35°22' E 139°51'0 0.0
2015-Aug-01 01:32N 35°22' E 139°51'0 0.0
2015-Aug-01 00:32N 35°22' E 139°51'0 0.0
2015-Jul-31 23:32N 35°22' E 139°51'0 0.0
2015-Jul-31 22:34N 35°22' E 139°51'1 1.4
2015-Jul-31 21:31N 35°23' E 139°49'0 0.1
2015-Jul-31 20:31N 35°23' E 139°49'0 0.0
2015-Jul-31 19:31N 35°23' E 139°49'0 0.0
2015-Jul-31 18:31N 35°23' E 139°49'3 3.4
2015-Jul-31 17:33N 35°22' E 139°45'1111.2
2015-Jul-31 16:33N 35°10' E 139°47'1110.8
2015-Jul-31 15:33N 35°01' E 139°39'1312.9
2015-Jul-31 14:33N 34°54' E 139°26'227 5.1
2015-Jul-29 18:14N 33°58' E 135°00'711.0
2015-Jul-29 17:33N 34°06' E 134°59'1212.3
2015-Jul-29 16:33N 34°18' E 134°58'1111.4
2015-Jul-29 15:33N 34°29' E 135°02'8 8.2
2015-Jul-29 14:33N 34°36' E 134°57'  

Dump ship's entire track history